createdAt,value
2019-03-09T00:01:39.975Z,8.60
2019-03-09T00:04:09.423Z,8.60
2019-03-09T00:06:38.814Z,8.60
2019-03-09T00:09:09.402Z,8.60
2019-03-09T00:11:38.816Z,8.60
2019-03-09T00:14:08.311Z,8.50
2019-03-09T00:16:37.744Z,8.60
2019-03-09T00:19:07.188Z,8.40
2019-03-09T00:21:36.672Z,8.20
2019-03-09T00:24:27.449Z,8.40
2019-03-09T00:27:07.197Z,8.30
2019-03-09T00:29:50.974Z,8.30
2019-03-09T00:32:23.327Z,8.20
2019-03-09T00:34:52.730Z,8.30
2019-03-09T00:37:22.311Z,8.30
2019-03-09T00:39:51.751Z,8.40
2019-03-09T00:42:21.169Z,8.30
2019-03-09T00:44:50.704Z,8.30
2019-03-09T00:47:20.104Z,8.30
2019-03-09T00:49:49.544Z,8.20
2019-03-09T00:52:18.963Z,8.20
2019-03-09T00:54:48.425Z,8.20
2019-03-09T00:57:17.838Z,8.20
2019-03-09T00:59:47.288Z,8.20
2019-03-09T01:02:16.698Z,8.30
2019-03-09T01:04:46.129Z,8.20
2019-03-09T01:07:15.571Z,8.10
2019-03-09T01:09:44.995Z,8.30
2019-03-09T01:12:14.404Z,8.20
2019-03-09T01:14:43.845Z,8.10
2019-03-09T01:17:13.314Z,8.20
2019-03-09T01:19:42.836Z,8.20
2019-03-09T01:22:12.277Z,8.00
2019-03-09T01:24:41.718Z,8.00
2019-03-09T01:27:11.214Z,8.00
2019-03-09T01:29:40.680Z,8.00
2019-03-09T01:32:10.094Z,8.00
2019-03-09T01:34:39.539Z,8.00
2019-03-09T01:37:08.969Z,7.90
2019-03-09T01:39:38.412Z,7.90
2019-03-09T01:42:07.822Z,7.90
2019-03-09T01:44:37.289Z,7.80
2019-03-09T01:47:06.723Z,7.90
2019-03-09T01:49:36.174Z,7.80
2019-03-09T01:52:05.660Z,7.80
2019-03-09T01:54:35.102Z,7.90
2019-03-09T01:57:04.510Z,7.90
2019-03-09T01:59:33.936Z,7.90
2019-03-09T02:02:03.342Z,7.70
2019-03-09T02:04:32.786Z,7.60
2019-03-09T02:07:02.294Z,7.80
2019-03-09T02:09:31.739Z,7.90
2019-03-09T02:12:01.146Z,7.80
2019-03-09T02:14:30.597Z,7.90
2019-03-09T02:17:00.050Z,7.80
2019-03-09T02:19:29.502Z,7.60
2019-03-09T02:21:58.909Z,7.60
2019-03-09T02:24:28.349Z,7.90
2019-03-09T02:26:57.764Z,7.70
2019-03-09T02:29:27.273Z,7.80
2019-03-09T02:31:56.687Z,7.80
2019-03-09T02:34:26.123Z,7.80
2019-03-09T02:36:55.631Z,7.80
2019-03-09T02:39:29.756Z,7.70
2019-03-09T02:41:59.485Z,7.70
2019-03-09T02:44:28.921Z,7.70
2019-03-09T02:46:58.384Z,7.70
2019-03-09T02:49:27.793Z,7.50
2019-03-09T02:51:57.217Z,7.40
2019-03-09T02:54:26.654Z,7.50
2019-03-09T02:56:56.102Z,7.80
2019-03-09T02:59:25.509Z,7.70
2019-03-09T03:02:16.785Z,7.60
2019-03-09T03:04:46.226Z,7.70
2019-03-09T03:07:15.687Z,7.70
2019-03-09T03:09:45.093Z,7.60
2019-03-09T03:12:14.541Z,7.50
2019-03-09T03:14:43.954Z,7.40
2019-03-09T03:17:13.419Z,7.40
2019-03-09T03:19:42.835Z,7.60
2019-03-09T03:22:12.298Z,7.50
2019-03-09T03:24:41.720Z,7.40
2019-03-09T03:27:11.166Z,7.60
2019-03-09T03:29:40.576Z,7.60
2019-03-09T03:32:10.039Z,7.50
2019-03-09T03:34:39.545Z,7.40
2019-03-09T03:37:08.986Z,7.50
2019-03-09T03:39:38.492Z,7.40
2019-03-09T03:42:08.133Z,7.30
2019-03-09T03:44:46.516Z,7.50
2019-03-09T03:47:17.275Z,7.50
2019-03-09T03:49:48.202Z,7.50
2019-03-09T03:52:17.632Z,7.50
2019-03-09T03:54:47.052Z,7.50
2019-03-09T03:57:16.486Z,7.50
2019-03-09T03:59:45.898Z,7.50
2019-03-09T04:02:15.325Z,7.50
2019-03-09T04:04:44.759Z,7.50
2019-03-09T04:07:14.416Z,7.60
2019-03-09T04:09:44.135Z,7.60
2019-03-09T04:12:13.687Z,7.50
2019-03-09T04:14:43.117Z,7.50
2019-03-09T04:17:12.583Z,7.40
2019-03-09T04:19:41.986Z,7.50
2019-03-09T04:22:11.433Z,7.40
2019-03-09T04:24:40.853Z,7.50
2019-03-09T04:27:10.284Z,7.50
2019-03-09T04:29:39.813Z,7.50
2019-03-09T04:32:09.267Z,7.50
2019-03-09T04:34:38.683Z,7.40
2019-03-09T04:37:08.134Z,7.50
2019-03-09T04:39:37.541Z,7.30
2019-03-09T04:42:06.982Z,7.40
2019-03-09T04:44:36.378Z,7.40
2019-03-09T04:47:05.820Z,7.50
2019-03-09T04:49:35.224Z,7.50
2019-03-09T04:52:04.657Z,7.40
2019-03-09T04:54:34.073Z,7.40
2019-03-09T04:57:03.556Z,7.50
2019-03-09T04:59:32.991Z,7.30
2019-03-09T05:02:02.436Z,7.30
2019-03-09T05:05:00.361Z,7.40
2019-03-09T05:07:59.406Z,7.40
2019-03-09T05:11:00.126Z,7.40
2019-03-09T05:13:45.419Z,7.50
2019-03-09T05:16:14.970Z,7.30
2019-03-09T05:18:44.429Z,7.30
2019-03-09T05:21:13.863Z,7.30
2019-03-09T05:23:43.306Z,7.30
2019-03-09T05:26:12.720Z,7.20
2019-03-09T05:28:42.161Z,7.30
2019-03-09T05:31:11.579Z,7.30
2019-03-09T05:33:41.021Z,7.30
2019-03-09T05:36:10.437Z,7.40
2019-03-09T05:38:39.883Z,7.30
2019-03-09T05:41:09.299Z,7.40
2019-03-09T05:43:38.738Z,7.20
2019-03-09T05:46:08.147Z,7.20
2019-03-09T05:48:37.590Z,7.40
2019-03-09T05:51:07.041Z,7.30
2019-03-09T05:53:36.497Z,7.40
2019-03-09T05:56:07.785Z,7.30
2019-03-09T05:58:36.998Z,7.40
2019-03-09T06:01:06.408Z,7.20
2019-03-09T06:03:35.861Z,7.20
2019-03-09T06:06:13.501Z,7.40
2019-03-09T06:08:43.259Z,7.30
2019-03-09T06:11:12.662Z,7.40
2019-03-09T06:13:42.100Z,7.30
2019-03-09T06:16:11.555Z,7.30
2019-03-09T06:18:41.005Z,7.30
2019-03-09T06:21:10.522Z,7.20
2019-03-09T06:23:39.954Z,7.40
2019-03-09T06:26:09.366Z,7.40
2019-03-09T06:28:38.812Z,7.40
2019-03-09T06:31:08.208Z,7.40
2019-03-09T06:33:38.598Z,7.30
2019-03-09T06:36:35.227Z,7.40
2019-03-09T06:39:11.901Z,7.40
2019-03-09T06:41:56.569Z,7.40
2019-03-09T06:44:27.217Z,7.40
2019-03-09T06:46:56.782Z,7.50
2019-03-09T06:49:26.249Z,7.50
2019-03-09T06:51:55.669Z,7.40
2019-03-09T06:54:25.114Z,7.40
2019-03-09T06:56:54.540Z,7.50
2019-03-09T06:59:23.979Z,7.50
2019-03-09T07:01:53.395Z,7.50
2019-03-09T07:04:22.849Z,7.50
2019-03-09T07:06:52.272Z,7.50
2019-03-09T07:09:21.716Z,7.50
2019-03-09T07:11:51.141Z,7.60
2019-03-09T07:15:16.210Z,7.50
2019-03-09T07:17:45.749Z,7.60
2019-03-09T07:20:15.385Z,7.60
2019-03-09T07:22:44.807Z,7.50
2019-03-09T07:25:14.242Z,7.50
2019-03-09T07:27:43.664Z,7.40
2019-03-09T07:30:15.945Z,7.30
2019-03-09T07:32:45.370Z,7.30
2019-03-09T07:35:14.811Z,7.40
2019-03-09T07:37:44.209Z,7.40
2019-03-09T07:40:13.679Z,7.40
2019-03-09T07:42:43.097Z,7.40
2019-03-09T07:45:13.336Z,7.50
2019-03-09T07:47:42.755Z,7.50
2019-03-09T07:50:12.600Z,7.50
2019-03-09T07:52:42.072Z,7.40
2019-03-09T07:55:13.335Z,7.50
2019-03-09T07:57:42.778Z,7.40
2019-03-09T08:00:14.348Z,7.50
2019-03-09T08:02:43.774Z,7.50
2019-03-09T08:05:15.141Z,7.50
2019-03-09T08:07:44.704Z,7.60
2019-03-09T08:10:16.357Z,7.60
2019-03-09T08:12:45.793Z,7.60
2019-03-09T08:15:16.981Z,7.60
2019-03-09T08:17:46.464Z,7.60
2019-03-09T08:20:16.343Z,7.70
2019-03-09T08:22:45.773Z,7.60
2019-03-09T08:25:15.907Z,7.70
2019-03-09T08:27:45.441Z,7.70
2019-03-09T08:30:19.569Z,7.70
2019-03-09T08:32:49.043Z,7.70
2019-03-09T08:35:19.771Z,7.70
2019-03-09T08:37:50.130Z,7.70
2019-03-09T08:40:19.582Z,7.80
2019-03-09T08:42:49.016Z,7.80
2019-03-09T08:45:19.228Z,7.80
2019-03-09T08:47:52.594Z,7.90
2019-03-09T08:50:21.316Z,7.80
2019-03-09T08:52:50.769Z,7.90
2019-03-09T08:55:20.347Z,7.80
2019-03-09T08:57:51.249Z,7.90
2019-03-09T09:00:30.302Z,7.90
2019-03-09T09:02:59.846Z,8.00
2019-03-09T09:05:29.388Z,8.00
2019-03-09T09:07:58.826Z,8.00
2019-03-09T09:10:28.233Z,8.10
2019-03-09T09:12:57.670Z,8.00
2019-03-09T09:15:27.085Z,8.20
2019-03-09T09:17:56.726Z,8.10
2019-03-09T09:20:26.134Z,8.20
2019-03-09T09:22:55.564Z,8.20
2019-03-09T09:25:24.980Z,8.30
2019-03-09T09:27:54.938Z,8.30
2019-03-09T09:30:26.005Z,8.30
2019-03-09T09:32:55.499Z,8.40
2019-03-09T09:35:25.049Z,8.30
2019-03-09T09:37:54.594Z,8.40
2019-03-09T09:40:24.353Z,8.40
2019-03-09T09:42:54.093Z,8.50
2019-03-09T09:45:23.614Z,8.40
2019-03-09T09:47:53.079Z,8.50
2019-03-09T09:50:22.512Z,8.50
2019-03-09T09:52:51.976Z,8.50
2019-03-09T09:55:21.379Z,8.50
2019-03-09T09:57:50.847Z,8.50
2019-03-09T10:00:22.431Z,8.50
2019-03-09T10:02:52.004Z,8.50
2019-03-09T10:05:22.441Z,8.60
2019-03-09T10:07:52.080Z,8.70
2019-03-09T10:10:21.857Z,8.80
2019-03-09T10:12:51.694Z,8.90
2019-03-09T10:15:23.259Z,8.90
2019-03-09T10:17:53.007Z,8.90
2019-03-09T10:20:22.418Z,8.90
2019-03-09T10:23:02.999Z,8.90
2019-03-09T10:25:23.530Z,8.90
2019-03-09T10:27:52.981Z,9.00
2019-03-09T10:30:22.773Z,8.80
2019-03-09T10:32:52.338Z,8.70
2019-03-09T10:35:21.996Z,8.70
2019-03-09T10:37:51.636Z,8.80
2019-03-09T10:40:21.077Z,8.80
2019-03-09T10:42:50.488Z,9.00
2019-03-09T10:45:19.988Z,8.90
2019-03-09T10:47:49.550Z,8.90
2019-03-09T10:50:19.057Z,8.90
2019-03-09T10:52:48.575Z,9.00
2019-03-09T10:55:19.700Z,8.90
2019-03-09T10:57:49.117Z,8.90
2019-03-09T11:00:26.877Z,8.90
2019-03-09T11:02:56.601Z,9.00
2019-03-09T11:05:26.184Z,8.90
2019-03-09T11:07:55.649Z,9.10
2019-03-09T11:10:25.095Z,9.20
2019-03-09T11:12:54.509Z,9.10
2019-03-09T11:15:23.970Z,9.00
2019-03-09T11:17:53.376Z,9.00
2019-03-09T11:20:22.940Z,9.10
2019-03-09T11:22:52.385Z,9.20
2019-03-09T11:25:21.816Z,9.20
2019-03-09T11:27:51.233Z,9.10
2019-03-09T11:30:25.042Z,9.20
2019-03-09T11:32:54.463Z,9.30
2019-03-09T11:35:23.896Z,9.20
2019-03-09T11:37:53.414Z,9.30
2019-03-09T11:40:22.879Z,9.20
2019-03-09T11:42:52.379Z,9.20
2019-03-09T11:45:21.951Z,9.40
2019-03-09T11:47:51.359Z,9.20
2019-03-09T11:50:21.006Z,9.50
2019-03-09T11:52:50.491Z,9.70
2019-03-09T11:55:19.931Z,9.50
2019-03-09T11:57:49.339Z,9.60
2019-03-09T12:00:22.639Z,9.50
2019-03-09T12:02:52.030Z,10.10
2019-03-09T12:05:23.708Z,10.00
2019-03-09T12:07:53.075Z,9.80
2019-03-09T12:10:22.494Z,9.80
2019-03-09T12:12:51.899Z,9.80
2019-03-09T12:15:21.394Z,9.80
2019-03-09T12:17:50.971Z,10.00
2019-03-09T12:20:21.738Z,9.90
2019-03-09T12:22:51.154Z,9.90
2019-03-09T12:25:20.687Z,10.10
2019-03-09T12:27:50.114Z,10.40
2019-03-09T12:30:20.609Z,10.50
2019-03-09T12:32:50.034Z,10.50
2019-03-09T12:35:19.473Z,10.40
2019-03-09T12:37:49.094Z,10.40
2019-03-09T12:40:18.537Z,10.50
2019-03-09T12:42:48.055Z,10.50
2019-03-09T12:45:18.001Z,10.40
2019-03-09T12:47:47.412Z,10.40
2019-03-09T12:50:17.802Z,10.30
2019-03-09T12:52:47.256Z,10.30
2019-03-09T12:55:16.827Z,10.30
2019-03-09T12:57:46.250Z,10.50
2019-03-09T13:00:17.556Z,10.40
2019-03-09T13:02:46.986Z,10.50
2019-03-09T13:05:17.645Z,10.40
2019-03-09T13:07:47.148Z,10.40
2019-03-09T13:10:17.006Z,10.50
2019-03-09T13:12:46.538Z,10.70
2019-03-09T13:15:16.443Z,10.50
2019-03-09T13:17:45.986Z,10.60
2019-03-09T13:20:15.804Z,10.60
2019-03-09T13:22:45.220Z,10.40
2019-03-09T13:25:15.187Z,10.40
2019-03-09T13:27:44.902Z,10.40
2019-03-09T13:30:19.314Z,10.40
2019-03-09T13:32:48.721Z,10.30
2019-03-09T13:35:18.177Z,10.20
2019-03-09T13:37:47.598Z,10.20
2019-03-09T13:40:17.478Z,10.30
2019-03-09T13:42:46.877Z,10.30
2019-03-09T13:45:16.335Z,10.30
2019-03-09T13:47:45.775Z,10.40
2019-03-09T13:50:15.230Z,10.30
2019-03-09T13:52:44.665Z,10.20
2019-03-09T13:55:14.425Z,10.10
2019-03-09T13:57:43.852Z,10.00
2019-03-09T14:00:14.816Z,10.20
2019-03-09T14:02:44.237Z,10.30
2019-03-09T14:05:13.680Z,10.10
2019-03-09T14:07:43.112Z,10.10
2019-03-09T14:10:13.277Z,10.00
2019-03-09T14:12:42.689Z,10.00
2019-03-09T14:15:13.690Z,10.00
2019-03-09T14:17:43.153Z,10.10
2019-03-09T14:20:13.581Z,10.10
2019-03-09T14:22:43.065Z,10.10
2019-03-09T14:25:12.878Z,10.00
2019-03-09T14:27:42.327Z,10.10
2019-03-09T14:30:13.485Z,10.10
2019-03-09T14:32:43.008Z,10.00
2019-03-09T14:35:12.676Z,10.10
2019-03-09T14:37:42.250Z,10.00
2019-03-09T14:40:12.320Z,10.00
2019-03-09T14:42:41.804Z,10.10
2019-03-09T14:45:15.844Z,10.20
2019-03-09T14:47:45.263Z,10.10
2019-03-09T14:50:14.846Z,10.10
2019-03-09T14:52:44.356Z,10.10
2019-03-09T14:55:14.125Z,10.20
2019-03-09T14:57:44.550Z,10.20
2019-03-09T15:00:16.881Z,10.10
2019-03-09T15:02:46.393Z,10.10
2019-03-09T15:05:15.814Z,10.10
2019-03-09T15:07:45.235Z,10.00
2019-03-09T15:10:15.015Z,10.10
2019-03-09T15:12:46.154Z,10.20
2019-03-09T15:15:15.995Z,10.10
2019-03-09T15:17:45.462Z,10.00
2019-03-09T15:20:16.179Z,10.10
2019-03-09T15:22:45.750Z,10.10
2019-03-09T15:25:15.443Z,10.10
2019-03-09T15:27:45.103Z,10.00
2019-03-09T15:30:16.394Z,10.10
2019-03-09T15:32:45.900Z,10.00
2019-03-09T15:35:16.422Z,10.00
2019-03-09T15:37:46.180Z,10.00
2019-03-09T15:40:17.460Z,9.90
2019-03-09T15:42:47.071Z,9.90
2019-03-09T15:45:16.568Z,9.90
2019-03-09T15:47:46.135Z,10.00
2019-03-09T15:50:16.115Z,9.90
2019-03-09T15:52:45.595Z,9.90
2019-03-09T15:55:15.524Z,10.00
2019-03-09T15:57:45.413Z,9.80
2019-03-09T16:00:17.446Z,9.90
2019-03-09T16:02:47.132Z,9.90
2019-03-09T16:05:16.511Z,9.90
2019-03-09T16:07:46.013Z,9.80
2019-03-09T16:10:15.847Z,9.70
2019-03-09T16:12:45.290Z,9.70
2019-03-09T16:15:15.444Z,9.70
2019-03-09T16:17:45.475Z,9.60
2019-03-09T16:20:16.177Z,9.70
2019-03-09T16:22:46.277Z,9.60
2019-03-09T16:25:15.711Z,9.60
2019-03-09T16:27:45.140Z,9.70
2019-03-09T16:30:16.940Z,9.70
2019-03-09T16:32:46.484Z,9.70
2019-03-09T16:35:16.116Z,9.70
2019-03-09T16:37:45.755Z,9.60
2019-03-09T16:40:15.773Z,9.70
2019-03-09T16:42:45.215Z,9.70
2019-03-09T16:45:14.924Z,9.60
2019-03-09T16:47:44.387Z,9.60
2019-03-09T16:50:14.255Z,9.60
2019-03-09T16:52:43.686Z,9.50
2019-03-09T16:55:13.337Z,9.50
2019-03-09T16:57:42.834Z,9.50
2019-03-09T17:00:15.357Z,9.50
2019-03-09T17:02:44.795Z,9.50
2019-03-09T17:05:14.633Z,9.50
2019-03-09T17:07:44.354Z,9.50
2019-03-09T17:10:14.148Z,9.50
2019-03-09T17:12:43.629Z,9.40
2019-03-09T17:15:13.810Z,9.50
2019-03-09T17:17:43.337Z,9.50
2019-03-09T17:20:13.442Z,9.50
2019-03-09T17:22:42.894Z,9.50
2019-03-09T17:25:12.600Z,9.50
2019-03-09T17:27:42.248Z,9.50
2019-03-09T17:30:14.196Z,9.40
2019-03-09T17:32:43.747Z,9.40
2019-03-09T17:35:13.470Z,9.50
2019-03-09T17:37:42.911Z,9.40
2019-03-09T17:40:13.349Z,9.40
2019-03-09T17:42:42.906Z,9.40
2019-03-09T17:45:19.322Z,9.40
2019-03-09T17:47:48.906Z,9.40
2019-03-09T17:50:18.364Z,9.50
2019-03-09T17:52:47.810Z,9.40
2019-03-09T17:55:17.398Z,9.40
2019-03-09T17:57:46.987Z,9.40
2019-03-09T18:00:18.973Z,9.40
2019-03-09T18:02:48.466Z,9.40
2019-03-09T18:05:19.713Z,9.40
2019-03-09T18:07:49.121Z,9.40
2019-03-09T18:10:22.343Z,9.30
2019-03-09T18:12:51.943Z,9.30
2019-03-09T18:15:21.353Z,9.30
2019-03-09T18:17:50.954Z,9.30
2019-03-09T18:20:20.426Z,9.20
2019-03-09T18:22:50.005Z,9.20
2019-03-09T18:25:19.490Z,9.20
2019-03-09T18:27:48.929Z,9.30
2019-03-09T18:30:18.355Z,9.30
2019-03-09T18:32:47.792Z,9.20
2019-03-09T18:35:17.296Z,9.20
2019-03-09T18:37:46.743Z,9.20
2019-03-09T18:40:16.272Z,9.20
2019-03-09T18:42:45.711Z,9.20
2019-03-09T18:45:16.602Z,9.20
2019-03-09T18:47:46.068Z,9.20
2019-03-09T18:50:15.659Z,9.20
2019-03-09T18:52:45.148Z,9.20
2019-03-09T18:55:14.583Z,9.20
2019-03-09T18:57:44.038Z,9.20
2019-03-09T19:00:15.646Z,9.20
2019-03-09T19:02:45.088Z,9.20
2019-03-09T19:05:14.685Z,9.20
2019-03-09T19:07:44.112Z,9.20
2019-03-09T19:10:14.030Z,9.20
2019-03-09T19:12:43.455Z,9.10
2019-03-09T19:15:13.769Z,9.20
2019-03-09T19:17:43.241Z,9.20
2019-03-09T19:20:13.341Z,9.20
2019-03-09T19:22:42.781Z,9.20
2019-03-09T19:25:12.618Z,9.20
2019-03-09T19:27:42.055Z,9.20
2019-03-09T19:30:13.534Z,9.20
2019-03-09T19:32:42.976Z,9.20
2019-03-09T19:35:12.705Z,9.20
2019-03-09T19:37:42.154Z,9.20
2019-03-09T19:40:13.278Z,9.10
2019-03-09T19:42:42.709Z,9.20
2019-03-09T19:45:13.702Z,9.10
2019-03-09T19:47:43.149Z,9.20
2019-03-09T19:50:14.672Z,9.10
2019-03-09T19:52:44.100Z,9.10
2019-03-09T19:55:13.716Z,9.10
2019-03-09T19:57:43.236Z,9.20
2019-03-09T20:00:13.530Z,9.20
2019-03-09T20:02:43.140Z,9.10
2019-03-09T20:05:12.550Z,9.20
2019-03-09T20:07:42.002Z,9.20
2019-03-09T20:10:12.259Z,9.20
2019-03-09T20:12:41.687Z,9.20
2019-03-09T20:15:12.917Z,9.20
2019-03-09T20:17:42.401Z,9.10
2019-03-09T20:20:12.573Z,9.20
2019-03-09T20:22:42.029Z,9.10
2019-03-09T20:25:11.565Z,9.10
2019-03-09T20:27:41.011Z,9.20
2019-03-09T20:30:10.905Z,9.10
2019-03-09T20:32:40.358Z,9.10
2019-03-09T20:35:09.822Z,9.20
2019-03-09T20:37:39.262Z,9.20
2019-03-09T20:40:09.910Z,9.20
2019-03-09T20:42:39.527Z,9.20
2019-03-09T20:45:11.073Z,9.20
2019-03-09T20:47:40.496Z,9.20
2019-03-09T20:50:11.779Z,9.20
2019-03-09T20:52:41.434Z,9.10
2019-03-09T20:55:11.062Z,9.20
2019-03-09T20:57:40.538Z,9.20
2019-03-09T21:00:12.875Z,9.20
2019-03-09T21:02:42.363Z,9.20
2019-03-09T21:05:13.147Z,9.20
2019-03-09T21:07:42.587Z,9.20
2019-03-09T21:10:13.194Z,9.20
2019-03-09T21:13:03.092Z,9.10
2019-03-09T21:15:32.641Z,9.20
2019-03-09T21:18:02.158Z,9.20
2019-03-09T21:20:31.658Z,9.10
2019-03-09T21:23:01.101Z,9.30
2019-03-09T21:25:30.500Z,9.20
2019-03-09T21:27:59.922Z,9.20
2019-03-09T21:30:29.347Z,9.20
2019-03-09T21:32:58.825Z,9.20
2019-03-09T21:35:28.251Z,9.20
2019-03-09T21:37:57.698Z,9.20
2019-03-09T21:40:27.158Z,9.20
2019-03-09T21:42:56.590Z,9.20
2019-03-09T21:45:26.006Z,9.20
2019-03-09T21:47:55.574Z,9.20
2019-03-09T21:50:24.977Z,9.20
2019-03-09T21:52:54.453Z,9.10
2019-03-09T21:55:23.881Z,9.20
2019-03-09T21:57:53.366Z,9.20
2019-03-09T22:00:22.792Z,9.20
2019-03-09T22:02:52.315Z,9.20
2019-03-09T22:05:21.725Z,9.20
2019-03-09T22:07:51.163Z,9.20
2019-03-09T22:10:20.574Z,9.20
2019-03-09T22:12:50.019Z,9.20
2019-03-09T22:15:19.458Z,9.20
2019-03-09T22:17:48.902Z,9.10
2019-03-09T22:20:20.535Z,9.10
2019-03-09T22:22:49.416Z,9.10
2019-03-09T22:25:18.820Z,9.10
2019-03-09T22:27:48.262Z,9.20
2019-03-09T22:30:17.722Z,9.20
2019-03-09T22:32:47.151Z,9.20
2019-03-09T22:35:16.575Z,9.20
2019-03-09T22:37:45.998Z,9.20
2019-03-09T22:40:15.482Z,9.20
2019-03-09T22:42:44.932Z,9.10
2019-03-09T22:45:14.345Z,9.20
2019-03-09T22:47:43.976Z,9.20
2019-03-09T22:50:14.336Z,9.20
2019-03-09T22:52:43.767Z,9.20
2019-03-09T22:55:15.213Z,9.20
2019-03-09T22:57:44.632Z,9.20
2019-03-09T23:00:15.927Z,9.20
2019-03-09T23:02:45.413Z,9.20
2019-03-09T23:05:14.977Z,9.20
2019-03-09T23:07:44.384Z,9.10
2019-03-09T23:10:15.519Z,9.20
2019-03-09T23:12:45.030Z,9.20
2019-03-09T23:15:15.339Z,9.10
2019-03-09T23:17:45.498Z,9.10
2019-03-09T23:20:15.170Z,9.10
2019-03-09T23:22:44.608Z,9.20
2019-03-09T23:25:15.195Z,9.20
2019-03-09T23:27:44.858Z,9.20
2019-03-09T23:30:16.256Z,9.20
2019-03-09T23:32:47.471Z,9.20
2019-03-09T23:35:17.242Z,9.10
2019-03-09T23:37:46.889Z,9.20
2019-03-09T23:40:16.577Z,9.10
2019-03-09T23:42:45.985Z,9.10
2019-03-09T23:45:16.551Z,9.20
2019-03-09T23:47:45.985Z,9.20
2019-03-09T23:50:16.190Z,9.20
2019-03-09T23:52:45.937Z,9.20
2019-03-09T23:55:21.857Z,9.10
2019-03-09T23:57:47.417Z,9.20
